Time;durP1;ratioP1;P1;durP2;ratioP2;P2;SDS_P1;SDS_P2;PMS_P1;PMS_P2;Temp;Humidity;BMP_temperature;BMP_pressure;BME280_temperature;BME280_humidity;BME280_pressure;Samples;Min_cycle;Max_cycle;Signal;HPM_P1;HPM_P2
2023/04/24 00:00:12;;;;;;;10.63;9.18;;;;;;;8.43;96.78;99926.00;4863827;29;20049;-71
2023/04/24 00:02:38;;;;;;;12.77;9.70;;;;;;;8.44;97.12;99919.91;4860018;29;20482;-71
2023/04/24 00:05:07;;;;;;;11.88;10.10;;;;;;;8.43;97.57;99932.13;4864039;29;20046;-71
2023/04/24 00:07:34;;;;;;;12.68;10.30;;;;;;;8.42;97.70;99916.44;4875617;29;20047;-70
2023/04/24 00:09:59;;;;;;;15.02;11.23;;;;;;;8.40;97.64;99924.31;4874857;29;20099;-71
2023/04/24 00:12:25;;;;;;;15.02;11.93;;;;;;;8.40;97.97;99923.47;4895844;29;20056;-71
2023/04/24 00:14:51;;;;;;;17.15;12.23;;;;;;;8.39;98.02;99926.94;4885558;29;20041;-71
2023/04/24 00:17:19;;;;;;;17.60;12.77;;;;;;;8.39;97.81;99927.84;4889042;29;20123;-71
2023/04/24 00:19:46;;;;;;;19.98;12.55;;;;;;;8.39;97.94;99932.16;4884443;29;20044;-71
2023/04/24 00:22:14;;;;;;;18.77;13.48;;;;;;;8.39;98.10;99933.06;4892605;29;20141;-71
2023/04/24 00:24:40;;;;;;;18.38;13.40;;;;;;;8.39;97.92;99933.06;4896118;29;20496;-71
2023/04/24 00:27:06;;;;;;;16.30;12.90;;;;;;;8.39;97.73;99942.63;4891647;29;20032;-71
2023/04/24 00:29:31;;;;;;;19.92;13.85;;;;;;;8.37;98.27;99942.66;4883038;29;20033;-71
2023/04/24 00:31:57;;;;;;;18.23;13.38;;;;;;;8.36;98.23;99940.94;4877819;29;20058;-71
2023/04/24 00:34:22;;;;;;;19.85;14.35;;;;;;;8.33;97.98;99940.97;4880975;29;20151;-71
2023/04/24 00:36:51;;;;;;;21.27;15.52;;;;;;;8.32;98.43;99944.50;4869932;29;20080;-71
2023/04/24 00:39:18;;;;;;;21.10;15.30;;;;;;;8.30;98.17;99936.69;4888140;29;20767;-71
2023/04/24 00:41:45;;;;;;;24.45;16.05;;;;;;;8.30;98.56;99947.13;4882313;29;20059;-71
2023/04/24 00:44:10;;;;;;;23.55;16.05;;;;;;;8.28;98.45;99945.44;4866674;29;20194;-71
2023/04/24 00:46:36;;;;;;;22.10;16.33;;;;;;;8.25;98.87;99945.47;4880757;29;20131;-71
2023/04/24 00:49:02;;;;;;;25.33;16.38;;;;;;;8.22;99.28;99949.00;4868991;29;20485;-71
2023/04/24 00:51:28;;;;;;;22.40;15.80;;;;;;;8.19;99.09;99938.59;4881032;29;20048;-71
2023/04/24 00:53:53;;;;;;;29.35;17.55;;;;;;;8.15;99.57;99947.38;4864615;29;20048;-72
2023/04/24 00:56:19;;;;;;;21.98;17.83;;;;;;;8.14;99.77;99954.31;4875233;29;20041;-71
2023/04/24 00:58:45;;;;;;;23.25;17.23;;;;;;;8.12;100.00;99950.88;4854775;29;20126;-72
2023/04/24 01:01:11;;;;;;;27.38;17.92;;;;;;;8.11;99.49;99943.94;4896743;29;20140;-71
2023/04/24 01:03:37;;;;;;;24.63;17.67;;;;;;;8.11;99.50;99948.31;4874999;29;20047;-71
2023/04/24 01:06:03;;;;;;;26.50;18.08;;;;;;;8.11;99.70;99956.13;4882658;29;20044;-72
2023/04/24 01:08:29;;;;;;;23.48;17.77;;;;;;;8.09;99.53;99952.69;4892025;29;20040;-71
2023/04/24 01:10:57;;;;;;;28.23;18.63;;;;;;;8.07;99.34;99946.63;4888370;29;20140;-71
2023/04/24 01:13:22;;;;;;;25.33;18.20;;;;;;;8.08;99.72;99945.75;4874361;29;20047;-72
2023/04/24 01:15:48;;;;;;;29.58;18.75;;;;;;;8.05;100.00;99945.81;4876744;29;20409;-71
2023/04/24 01:18:14;;;;;;;25.88;17.80;;;;;;;8.04;99.79;99937.09;4881139;29;20044;-71
2023/04/24 01:20:42;;;;;;;27.90;19.08;;;;;;;8.02;99.61;99938.88;4879154;29;20049;-72
2023/04/24 01:23:08;;;;;;;24.67;18.63;;;;;;;8.01;99.33;99933.69;4867849;29;20044;-71
2023/04/24 01:25:34;;;;;;;29.30;19.80;;;;;;;8.03;99.85;99947.56;4865713;29;20119;-71
2023/04/24 01:28:00;;;;;;;28.55;19.35;;;;;;;8.00;100.00;99942.38;4877016;29;20033;-71
2023/04/24 01:30:26;;;;;;;26.67;19.70;;;;;;;7.96;99.86;99932.00;4907385;29;20052;-72
2023/04/24 01:32:52;;;;;;;26.33;18.80;;;;;;;7.94;100.00;99933.78;4887969;29;20051;-71
2023/04/24 01:35:18;;;;;;;30.17;20.50;;;;;;;7.91;100.00;99938.19;4875840;29;20032;-71
2023/04/24 01:37:44;;;;;;;26.52;18.85;;;;;;;7.88;100.00;99943.44;4882672;29;20067;-71
2023/04/24 01:40:09;;;;;;;26.02;18.63;;;;;;;7.87;100.00;99941.72;4867348;29;20045;-71
2023/04/24 01:42:35;;;;;;;25.70;19.17;;;;;;;7.85;100.00;99933.06;4883746;29;20076;-71
2023/04/24 01:45:03;;;;;;;30.73;20.23;;;;;;;7.82;100.00;99944.41;4896040;29;20104;-71
2023/04/24 01:47:30;;;;;;;28.75;20.27;;;;;;;7.81;100.00;99942.66;4881128;29;20052;-71
2023/04/24 01:49:56;;;;;;;32.80;22.05;;;;;;;7.81;100.00;99937.44;4883587;29;20552;-71
2023/04/24 01:52:21;;;;;;;30.65;22.27;;;;;;;7.80;100.00;99940.94;4881466;29;20072;-71
2023/04/24 01:54:47;;;;;;;35.17;22.48;;;;;;;7.80;100.00;99941.81;4881588;29;20040;-71
2023/04/24 01:57:13;;;;;;;34.72;23.05;;;;;;;7.80;100.00;99944.41;4880021;29;20044;-71
2023/04/24 01:59:39;;;;;;;36.83;26.23;;;;;;;7.77;100.00;99951.41;4875358;29;20033;-71
2023/04/24 02:02:04;;;;;;;35.55;25.05;;;;;;;7.78;100.00;99940.09;4863475;29;20518;-71
2023/04/24 02:04:30;;;;;;;38.22;25.70;;;;;;;7.79;100.00;99941.84;4867495;29;20068;-71
2023/04/24 02:06:55;;;;;;;37.72;26.55;;;;;;;7.75;100.00;99935.78;4887368;29;20040;-71
2023/04/24 02:09:21;;;;;;;36.05;25.77;;;;;;;7.76;100.00;99952.31;4878453;29;20536;-71
2023/04/24 02:11:46;;;;;;;36.65;25.92;;;;;;;7.75;100.00;99942.75;4883422;29;20059;-71
2023/04/24 02:14:12;;;;;;;41.70;27.23;;;;;;;7.76;100.00;99949.72;4877382;29;20127;-70
2023/04/24 02:16:37;;;;;;;39.88;26.98;;;;;;;7.74;100.00;99947.13;4887901;29;20048;-70
2023/04/24 02:19:03;;;;;;;33.15;25.65;;;;;;;7.76;100.00;99950.56;4884041;29;20418;-70
2023/04/24 02:21:30;;;;;;;35.30;25.38;;;;;;;7.75;100.00;99948.84;4869541;29;20075;-71
2023/04/24 02:23:56;;;;;;;38.42;25.67;;;;;;;7.75;100.00;99955.81;4865676;29;20494;-71
2023/04/24 02:26:21;;;;;;;34.30;25.48;;;;;;;7.74;100.00;99943.63;4893848;29;20128;-71
2023/04/24 02:28:47;;;;;;;34.00;25.52;;;;;;;7.75;100.00;99945.38;4865877;29;20131;-71
2023/04/24 02:31:12;;;;;;;36.03;25.50;;;;;;;7.75;100.00;99947.97;4869616;29;20055;-71
2023/04/24 02:33:37;;;;;;;36.58;25.85;;;;;;;7.75;100.00;99947.97;4881278;29;20048;-71
2023/04/24 02:36:03;;;;;;;33.97;24.83;;;;;;;7.73;100.00;99944.50;4853278;29;20044;-71
2023/04/24 02:38:29;;;;;;;33.83;25.13;;;;;;;7.74;100.00;99952.34;4871945;29;20151;-71
2023/04/24 02:40:55;;;;;;;34.67;25.17;;;;;;;7.74;100.00;99951.47;4887410;29;20040;-71
2023/04/24 02:43:20;;;;;;;33.47;25.55;;;;;;;7.71;100.00;99941.94;4881961;29;20490;-71
2023/04/24 02:45:46;;;;;;;32.85;24.70;;;;;;;7.70;100.00;99936.75;4886867;29;20131;-71
2023/04/24 02:48:11;;;;;;;34.20;24.92;;;;;;;7.69;100.00;99943.72;4890335;29;20051;-71
2023/04/24 02:50:37;;;;;;;34.65;25.33;;;;;;;7.71;100.00;99938.47;4886580;29;20468;-71
2023/04/24 02:53:02;;;;;;;32.53;24.25;;;;;;;7.72;100.00;99945.41;4892422;29;20040;-71
2023/04/24 02:55:28;;;;;;;32.72;24.88;;;;;;;7.69;100.00;99932.44;4852118;29;20071;-71
2023/04/24 02:57:54;;;;;;;31.85;23.10;;;;;;;7.68;100.00;99939.38;4879066;29;20072;-71
2023/04/24 03:00:20;;;;;;;31.73;24.65;;;;;;;7.67;100.00;99945.50;4852809;29;20095;-71
2023/04/24 03:02:46;;;;;;;34.97;24.60;;;;;;;7.66;100.00;99937.66;4896395;29;20048;-71
2023/04/24 03:05:11;;;;;;;33.63;24.25;;;;;;;7.66;100.00;99935.06;4880431;29;20036;-71
2023/04/24 03:07:37;;;;;;;31.83;24.60;;;;;;;7.63;100.00;99944.66;4882634;29;20490;-71
2023/04/24 03:10:05;;;;;;;35.03;24.10;;;;;;;7.61;100.00;99938.63;4875806;29;20434;-71
2023/04/24 03:12:31;;;;;;;35.65;24.92;;;;;;;7.60;100.00;99934.28;4890424;29;20044;-72
2023/04/24 03:14:56;;;;;;;32.00;23.45;;;;;;;7.59;100.00;99937.75;4892604;29;20527;-71
2023/04/24 03:17:22;;;;;;;30.20;23.60;;;;;;;7.59;100.00;99940.38;4868400;29;20032;-71
2023/04/24 03:19:47;;;;;;;31.17;23.80;;;;;;;7.58;100.00;99941.25;4872450;29;20469;-70
2023/04/24 03:22:13;;;;;;;34.70;24.70;;;;;;;7.60;100.00;99943.81;4858950;29;20420;-71
2023/04/24 03:24:38;;;;;;;33.65;22.90;;;;;;;7.60;100.00;99944.72;4879588;29;20464;-71
2023/04/24 03:27:03;;;;;;;32.38;23.58;;;;;;;7.58;100.00;99946.47;4890159;29;20043;-71
2023/04/24 03:29:29;;;;;;;31.25;24.90;;;;;;;7.59;100.00;99948.19;4897710;29;20032;-71
2023/04/24 03:31:54;;;;;;;36.35;23.38;;;;;;;7.57;100.00;99939.53;4873441;29;20484;-71
2023/04/24 03:34:20;;;;;;;33.88;24.52;;;;;;;7.59;100.00;99944.72;4893225;29;20536;-71
2023/04/24 03:36:47;;;;;;;33.20;23.95;;;;;;;7.58;100.00;99937.78;4857684;29;20048;-71
2023/04/24 03:39:13;;;;;;;30.40;23.55;;;;;;;7.56;100.00;99943.03;4893572;29;20033;-72
2023/04/24 03:41:38;;;;;;;29.40;22.95;;;;;;;7.57;100.00;99949.97;4888384;29;20055;-71
2023/04/24 03:44:04;;;;;;;27.55;21.83;;;;;;;7.55;99.86;99936.06;4865739;29;20044;-71
2023/04/24 03:46:29;;;;;;;32.80;21.23;;;;;;;7.55;99.76;99935.22;4845957;29;20404;-71
2023/04/24 03:48:55;;;;;;;33.65;21.83;;;;;;;7.53;99.68;99932.63;4871489;29;20449;-71
2023/04/24 03:51:21;;;;;;;30.67;21.25;;;;;;;7.52;100.00;99933.50;4887682;29;20506;-71
2023/04/24 03:53:47;;;;;;;26.30;20.05;;;;;;;7.52;99.13;99938.72;4865919;29;20048;-71
2023/04/24 03:56:13;;;;;;;25.73;19.67;;;;;;;7.49;99.25;99933.56;4880466;29;20064;-71
2023/04/24 03:58:39;;;;;;;27.17;19.08;;;;;;;7.49;99.38;99936.16;4877084;29;20044;-71
2023/04/24 04:01:05;;;;;;;28.08;18.85;;;;;;;7.48;99.67;99929.22;4875330;29;20040;-71
2023/04/24 04:03:30;;;;;;;29.73;18.50;;;;;;;7.48;100.00;99938.78;4878200;29;20109;-70
2023/04/24 04:05:56;;;;;;;25.63;20.02;;;;;;;7.45;99.98;99934.47;4876511;29;20044;-71
2023/04/24 04:08:21;;;;;;;25.52;19.48;;;;;;;7.43;99.15;99931.03;4892039;29;20045;-70
2023/04/24 04:10:47;;;;;;;24.95;18.92;;;;;;;7.42;99.41;99931.91;4856688;29;20045;-71
2023/04/24 04:13:13;;;;;;;27.27;18.85;;;;;;;7.43;99.44;99934.50;4868390;29;20437;-70
2023/04/24 04:15:38;;;;;;;24.67;18.80;;;;;;;7.44;99.73;99932.75;4881594;29;20129;-70
2023/04/24 04:18:04;;;;;;;24.52;17.80;;;;;;;7.41;99.74;99938.88;4898746;29;20037;-71
2023/04/24 04:20:29;;;;;;;24.80;18.85;;;;;;;7.40;99.41;99933.69;4845948;29;20492;-71
2023/04/24 04:22:55;;;;;;;23.70;18.92;;;;;;;7.38;99.58;99936.28;4853541;29;20048;-71
2023/04/24 04:25:20;;;;;;;25.15;17.98;;;;;;;7.38;99.23;99932.84;4877389;29;20087;-70
2023/04/24 04:27:48;;;;;;;25.60;19.10;;;;;;;7.36;99.54;99932.88;4876211;29;20040;-71
2023/04/24 04:30:14;;;;;;;24.75;17.95;;;;;;;7.36;99.06;99940.69;4879411;29;20052;-71
2023/04/24 04:32:40;;;;;;;21.77;18.10;;;;;;;7.36;99.40;99945.03;4883455;29;20060;-71
2023/04/24 04:35:05;;;;;;;25.65;17.88;;;;;;;7.34;99.69;99931.16;4855503;29;20052;-71
2023/04/24 04:37:34;;;;;;;21.15;17.55;;;;;;;7.31;99.81;99939.00;4887512;29;20048;-71
2023/04/24 04:40:00;;;;;;;23.90;18.40;;;;;;;7.31;100.00;99939.00;4891121;29;20041;-71
2023/04/24 04:42:26;;;;;;;23.38;18.17;;;;;;;7.27;100.00;99936.44;4884001;29;20044;-71
2023/04/24 04:44:52;;;;;;;23.65;17.25;;;;;;;7.27;100.00;99938.22;4875186;29;20092;-71
2023/04/24 04:47:22;;;;;;;22.67;17.75;;;;;;;7.28;100.00;99950.34;4860772;29;20048;-70
2023/04/24 04:49:48;;;;;;;25.10;17.95;;;;;;;7.25;100.00;99943.41;4892674;29;20035;-71
2023/04/24 04:52:13;;;;;;;20.67;17.02;;;;;;;7.26;100.00;99942.53;4871290;29;20037;-71
2023/04/24 04:54:39;;;;;;;21.88;16.58;;;;;;;7.27;100.00;99946.03;4890520;29;20405;-71
2023/04/24 04:57:05;;;;;;;22.08;16.80;;;;;;;7.25;100.00;99945.16;4880298;29;20048;-71
2023/04/24 04:59:31;;;;;;;19.05;15.80;;;;;;;7.24;100.00;99948.63;4866661;29;20043;-71
2023/04/24 05:01:56;;;;;;;22.23;16.45;;;;;;;7.24;100.00;99951.25;4852715;29;20481;-71
2023/04/24 05:04:26;;;;;;;18.13;15.68;;;;;;;7.22;100.00;99951.28;4876661;29;20037;-71
2023/04/24 05:06:52;;;;;;;18.55;15.25;;;;;;;7.22;100.00;99948.66;4877699;29;20059;-71
2023/04/24 05:09:18;;;;;;;19.15;15.40;;;;;;;7.23;100.00;99958.22;4872114;29;20041;-71
2023/04/24 05:11:44;;;;;;;19.10;15.23;;;;;;;7.22;100.00;99946.06;4878817;29;20036;-71
2023/04/24 05:14:09;;;;;;;19.33;14.73;;;;;;;7.22;100.00;99953.88;4883362;29;20040;-71
2023/04/24 05:16:36;;;;;;;19.30;15.32;;;;;;;7.24;100.00;99952.13;4887524;29;20044;-71
2023/04/24 05:19:02;;;;;;;18.25;15.13;;;;;;;7.28;100.00;99974.66;4850124;29;20041;-71
2023/04/24 05:21:27;;;;;;;18.92;14.68;;;;;;;7.26;100.00;99959.94;4875016;29;20529;-71
2023/04/24 05:23:53;;;;;;;18.50;14.27;;;;;;;7.33;100.00;99965.94;4885276;29;20104;-71
2023/04/24 05:26:22;;;;;;;18.73;14.50;;;;;;;7.34;100.00;99967.63;4864812;29;20050;-71
2023/04/24 05:28:47;;;;;;;16.75;13.98;;;;;;;7.36;100.00;99978.94;4873346;29;20397;-71
2023/04/24 05:31:13;;;;;;;16.23;13.77;;;;;;;7.36;100.00;99978.94;4862871;29;20059;-71
2023/04/24 05:33:38;;;;;;;19.08;14.45;;;;;;;7.38;100.00;99974.53;4860957;29;20135;-71
2023/04/24 05:36:06;;;;;;;18.67;13.35;;;;;;;7.37;100.00;99978.91;4877986;29;20043;-71
2023/04/24 05:38:31;;;;;;;16.48;13.57;;;;;;;7.37;100.00;99975.41;4864993;29;20044;-71
2023/04/24 05:40:56;;;;;;;18.50;13.93;;;;;;;7.36;100.00;99977.16;4859356;29;20442;-70
2023/04/24 05:43:22;;;;;;;15.80;11.43;;;;;;;7.38;100.00;99984.97;4877351;29;20055;-71
2023/04/24 05:45:47;;;;;;;14.77;11.32;;;;;;;7.35;100.00;99985.84;4886173;29;20374;-71
2023/04/24 05:48:13;;;;;;;16.35;10.55;;;;;;;7.36;100.00;99986.75;4891917;29;20040;-71
2023/04/24 05:50:38;;;;;;;11.05;8.18;;;;;;;7.34;100.00;99996.31;4891582;29;20040;-71
2023/04/24 05:53:04;;;;;;;12.80;8.25;;;;;;;7.31;100.00;99992.00;4872626;29;20068;-71
2023/04/24 05:55:31;;;;;;;9.38;7.38;;;;;;;7.32;100.00;99995.47;4849959;29;20049;-71
2023/04/24 05:57:56;;;;;;;9.20;6.68;;;;;;;7.33;100.00;99992.00;4871657;29;20044;-71
2023/04/24 06:00:24;;;;;;;8.90;6.25;;;;;;;7.35;100.00;100005.88;4876136;29;20040;-72
2023/04/24 06:02:49;;;;;;;8.98;5.82;;;;;;;7.32;100.00;100009.34;4881762;29;20044;-71
2023/04/24 06:05:15;;;;;;;6.95;4.57;;;;;;;7.31;100.00;100005.03;4864881;29;20037;-71
2023/04/24 06:07:40;;;;;;;7.32;4.15;;;;;;;7.32;100.00;100025.00;4849236;29;20048;-71
2023/04/24 06:10:06;;;;;;;6.82;4.28;;;;;;;7.30;100.00;100034.59;4883341;29;20509;-71
2023/04/24 06:12:32;;;;;;;5.50;4.07;;;;;;;7.28;100.00;100038.94;4847826;29;20053;-71
2023/04/24 06:14:57;;;;;;;6.35;4.63;;;;;;;7.34;100.00;100044.09;4881324;29;20511;-71
2023/04/24 06:17:23;;;;;;;5.90;4.57;;;;;;;7.35;100.00;100047.56;4871470;29;20041;-71
2023/04/24 06:19:49;;;;;;;7.25;5.28;;;;;;;7.38;100.00;100053.59;4846945;29;20061;-70
2023/04/24 06:22:15;;;;;;;6.97;5.50;;;;;;;7.39;100.00;100051.88;4879493;29;20040;-71
2023/04/24 06:24:40;;;;;;;7.40;5.82;;;;;;;7.40;100.00;100051.00;4859830;29;20041;-70
2023/04/24 06:27:06;;;;;;;8.38;6.72;;;;;;;7.45;100.00;100065.66;4869992;29;20041;-71
2023/04/24 06:29:36;;;;;;;11.07;6.53;;;;;;;7.46;100.00;100059.59;4879010;29;20112;-71
2023/04/24 06:32:02;;;;;;;8.20;7.03;;;;;;;7.52;100.00;100076.91;4878903;29;20060;-71
2023/04/24 06:34:27;;;;;;;8.25;6.50;;;;;;;7.54;100.00;100075.16;4878223;29;20093;-71
2023/04/24 06:36:54;;;;;;;7.28;6.18;;;;;;;7.58;100.00;100082.03;4877537;29;20033;-71
2023/04/24 06:39:20;;;;;;;9.70;6.63;;;;;;;7.59;100.00;100086.38;4879121;29;20055;-71
2023/04/24 06:41:45;;;;;;;11.98;6.72;;;;;;;7.63;100.00;100092.44;4848204;29;20033;-70
2023/04/24 06:44:11;;;;;;;10.15;7.43;;;;;;;7.65;100.00;100100.25;4857371;29;20099;-71
2023/04/24 06:46:36;;;;;;;10.88;7.70;;;;;;;7.68;100.00;100097.59;4869115;29;20116;-71
2023/04/24 06:49:02;;;;;;;10.95;8.43;;;;;;;7.73;100.00;100108.81;4884907;29;20036;-70
2023/04/24 06:51:27;;;;;;;11.30;8.60;;;;;;;7.77;100.00;100107.91;4880909;29;20036;-71
2023/04/24 06:53:53;;;;;;;12.88;9.32;;;;;;;7.84;100.00;100114.78;4853749;29;20029;-71
2023/04/24 06:56:20;;;;;;;11.27;8.80;;;;;;;7.89;100.00;100118.19;4877177;29;20044;-71
2023/04/24 06:58:46;;;;;;;9.10;8.15;;;;;;;7.87;100.00;100125.16;4881850;29;20044;-71
2023/04/24 07:01:11;;;;;;;10.43;8.13;;;;;;;7.90;100.00;100132.97;4877560;29;20048;-71
2023/04/24 07:03:37;;;;;;;9.40;7.80;;;;;;;7.86;100.00;100138.22;4877908;29;20040;-71
2023/04/24 07:06:03;;;;;;;9.25;6.65;;;;;;;7.80;100.00;100134.81;4867550;29;20029;-71
2023/04/24 07:08:30;;;;;;;8.93;6.53;;;;;;;7.72;100.00;100152.31;4879606;29;20032;-70
2023/04/24 07:10:56;;;;;;;10.52;7.40;;;;;;;7.65;100.00;100147.19;4883646;29;20041;-70
2023/04/24 07:13:22;;;;;;;8.48;7.28;;;;;;;7.61;100.00;100151.56;4851703;29;20394;-71
2023/04/24 07:15:50;;;;;;;10.00;8.05;;;;;;;7.55;100.00;100165.50;4847968;29;20157;-71
2023/04/24 07:18:16;;;;;;;11.75;8.55;;;;;;;7.54;100.00;100169.03;4847043;29;20052;-71
2023/04/24 07:20:42;;;;;;;12.63;9.15;;;;;;;7.48;100.00;100179.50;4873568;29;20040;-71
2023/04/24 07:23:08;;;;;;;14.02;10.32;;;;;;;7.41;100.00;100185.63;4855334;29;20041;-71
2023/04/24 07:25:33;;;;;;;19.90;11.70;;;;;;;7.39;100.00;100203.91;4864929;29;20444;-71
2023/04/24 07:27:59;;;;;;;17.30;12.38;;;;;;;7.34;100.00;100208.31;4866519;29;20049;-71
2023/04/24 07:30:25;;;;;;;19.63;12.90;;;;;;;7.28;100.00;100217.03;4861738;29;20043;-71
2023/04/24 07:32:51;;;;;;;18.92;12.70;;;;;;;7.23;100.00;100229.22;4861967;29;20117;-71
2023/04/24 07:35:16;;;;;;;19.13;13.00;;;;;;;7.17;100.00;100231.00;4885803;29;20044;-71
2023/04/24 07:37:45;;;;;;;20.60;13.30;;;;;;;7.15;100.00;100245.81;4858237;29;20171;-71
2023/04/24 07:40:15;;;;;;;20.98;14.07;;;;;;;7.11;100.00;100247.56;4854255;29;20045;-71
2023/04/24 07:42:43;;;;;;;19.77;13.27;;;;;;;7.10;100.00;100262.34;4873753;29;20110;-71
2023/04/24 07:45:09;;;;;;;19.27;12.82;;;;;;;7.07;100.00;100277.13;4854356;29;20056;-71
2023/04/24 07:47:36;;;;;;;25.48;11.95;;;;;;;7.02;100.00;100279.75;4862578;29;20040;-71
2023/04/24 07:50:03;;;;;;;23.55;12.85;;;;;;;7.03;100.00;100291.91;4886145;29;20037;-71
2023/04/24 07:52:29;;;;;;;22.10;12.98;;;;;;;7.06;100.00;100298.84;4860472;29;20081;-71
2023/04/24 07:54:58;;;;;;;16.83;12.18;;;;;;;7.06;100.00;100304.06;4856765;29;20042;-70
2023/04/24 07:57:24;;;;;;;18.75;11.57;;;;;;;7.05;100.00;100308.41;4857190;29;20055;-72
2023/04/24 07:59:50;;;;;;;15.93;11.05;;;;;;;7.08;100.00;100325.75;4860943;29;20064;-71
2023/04/24 08:02:16;;;;;;;15.07;10.90;;;;;;;7.06;100.00;100320.53;4874985;29;20041;-71
2023/04/24 08:04:41;;;;;;;17.75;10.23;;;;;;;7.08;100.00;100331.84;4834091;29;20487;-71
2023/04/24 08:07:07;;;;;;;17.92;9.82;;;;;;;7.07;100.00;100334.44;4885528;29;20485;-71
2023/04/24 08:09:32;;;;;;;18.52;9.27;;;;;;;7.08;100.00;100346.59;4829251;29;20037;-71
2023/04/24 08:11:58;;;;;;;18.50;9.07;;;;;;;7.08;100.00;100341.38;4841987;29;20100;-73
2023/04/24 08:14:23;;;;;;;19.85;8.90;;;;;;;7.10;100.00;100344.84;4877802;29;20075;-71
2023/04/24 08:16:48;;;;;;;18.65;8.25;;;;;;;7.10;100.00;100356.13;4865336;29;20044;-71
2023/04/24 08:19:14;;;;;;;22.75;8.88;;;;;;;7.12;100.00;100363.94;4882897;29;20534;-71
2023/04/24 08:21:39;;;;;;;19.23;8.48;;;;;;;7.13;100.00;100364.81;4865307;29;20107;-71
2023/04/24 08:24:07;;;;;;;20.58;8.27;;;;;;;7.16;100.00;100381.28;4874889;29;20040;-71
2023/04/24 08:26:33;;;;;;;20.42;7.80;;;;;;;7.17;100.00;100367.41;4870799;29;20380;-71
2023/04/24 08:28:58;;;;;;;18.67;7.90;;;;;;;7.19;100.00;100394.31;4864407;29;20117;-71
2023/04/24 08:31:24;;;;;;;20.08;7.50;;;;;;;7.21;100.00;100400.38;4901075;29;20103;-71
2023/04/24 08:33:50;;;;;;;23.08;9.02;;;;;;;7.27;100.00;100413.38;4896258;29;20047;-71
2023/04/24 08:36:15;;;;;;;19.75;8.00;;;;;;;7.27;100.00;100415.13;4877553;29;20047;-71
2023/04/24 08:38:46;;;;;;;15.13;7.13;;;;;;;7.25;100.00;100417.72;4889339;29;20036;-71
2023/04/24 08:41:14;;;;;;;14.95;5.80;;;;;;;7.23;99.62;100427.28;4868799;29;20556;-71
2023/04/24 08:43:40;;;;;;;17.33;5.55;;;;;;;7.22;99.43;100420.34;4882427;29;20048;-71
2023/04/24 08:46:06;;;;;;;18.13;6.10;;;;;;;7.22;99.36;100432.50;4877433;29;20040;-71
2023/04/24 08:48:32;;;;;;;19.30;5.50;;;;;;;7.20;99.02;100426.47;4867417;29;20043;-71
2023/04/24 08:50:59;;;;;;;13.93;5.93;;;;;;;7.18;99.29;100431.66;4901430;29;20024;-71
2023/04/24 08:53:25;;;;;;;13.23;5.28;;;;;;;7.21;99.78;100441.19;4878025;29;20045;-71
2023/04/24 08:55:53;;;;;;;19.25;5.60;;;;;;;7.23;99.46;100448.16;4892697;29;20051;-71
2023/04/24 08:58:22;;;;;;;22.17;5.30;;;;;;;7.30;99.95;100449.00;4907719;29;20044;-71
2023/04/24 09:00:47;;;;;;;17.23;5.45;;;;;;;7.35;99.98;100459.41;4867651;29;20036;-71
2023/04/24 09:03:15;;;;;;;16.75;5.95;;;;;;;7.39;98.93;100461.13;4892075;29;20059;-71
2023/04/24 09:05:46;;;;;;;19.40;6.15;;;;;;;7.41;99.24;100459.34;4887877;29;20045;-71
2023/04/24 09:08:13;;;;;;;20.70;5.82;;;;;;;7.46;98.69;100462.81;4889091;29;20048;-71
2023/04/24 09:10:39;;;;;;;17.55;6.10;;;;;;;7.50;99.15;100469.75;4882139;29;20040;-71
2023/04/24 09:13:05;;;;;;;23.90;6.28;;;;;;;7.58;100.00;100473.16;4877652;29;20136;-71
2023/04/24 09:15:31;;;;;;;20.90;6.10;;;;;;;7.62;98.83;100479.25;4882173;29;20064;-71
2023/04/24 09:17:57;;;;;;;19.35;5.63;;;;;;;7.60;98.43;100475.75;4882594;29;20069;-72
2023/04/24 09:20:22;;;;;;;17.00;5.70;;;;;;;7.63;98.36;100492.28;4878948;29;20040;-71
2023/04/24 09:22:48;;;;;;;20.83;5.32;;;;;;;7.59;98.07;100490.56;4849388;29;20048;-72
2023/04/24 09:25:13;;;;;;;18.45;5.70;;;;;;;7.62;98.38;100494.88;4852231;29;20109;-71
2023/04/24 09:27:44;;;;;;;18.65;5.32;;;;;;;7.68;98.14;100494.00;4869332;29;20056;-71
2023/04/24 09:30:10;;;;;;;13.45;4.60;;;;;;;7.71;96.48;100493.97;4881903;29;20052;-71
2023/04/24 09:37:44;;;;;;;13.13;3.95;;;;;;;7.95;93.07;100524.28;5456065;23;20078;-71
2023/04/24 09:40:28;;;;;;;13.27;3.85;;;;;;;8.08;92.61;100531.13;5062045;23;20035;-71
2023/04/24 09:45:35;;;;;;;15.00;4.20;;;;;;;8.43;89.35;100531.75;5230973;23;20070;-71
2023/04/24 09:53:08;;;;;;;12.95;3.80;;;;;;;8.38;88.77;100555.31;5170062;23;20484;-71
2023/04/24 09:55:39;;;;;;;10.75;3.88;;;;;;;8.29;87.70;100556.25;5051349;23;20082;-71
2023/04/24 09:58:07;;;;;;;12.10;3.65;;;;;;;8.17;86.53;100560.69;5271341;23;20075;-71
2023/04/24 10:03:04;;;;;;;15.53;3.70;;;;;;;8.00;87.18;100571.22;5196782;23;20055;31
2023/04/24 10:11:08;;;;;;;13.25;3.78;;;;;;;7.98;88.72;100579.03;5068735;23;20158;-71
2023/04/24 10:21:05;;;;;;;15.32;4.18;;;;;;;8.35;87.08;100581.44;4913633;29;20060;-71
2023/04/24 10:23:34;;;;;;;9.23;2.70;;;;;;;8.41;83.63;100601.44;5162852;23;20107;-72
2023/04/24 10:31:45;;;;;;;8.30;2.40;;;;;;;8.58;81.65;100598.72;5045361;23;20047;-72
2023/04/24 10:34:11;;;;;;;5.55;2.10;;;;;;;8.54;81.24;100597.88;4951786;23;20414;-71
2023/04/24 10:36:42;;;;;;;8.65;2.40;;;;;;;8.54;80.53;100613.53;4902703;29;20130;-72
2023/04/24 10:39:12;;;;;;;8.68;2.30;;;;;;;8.52;80.82;100610.09;4908416;29;20043;-72
2023/04/24 10:41:38;;;;;;;5.55;1.90;;;;;;;8.55;81.13;100620.50;4911726;29;20147;-71
2023/04/24 10:44:36;;;;;;;4.88;1.45;;;;;;;8.58;79.65;100614.41;4881587;29;20528;-72
2023/04/24 10:47:02;;;;;;;7.22;1.45;;;;;;;8.59;80.01;100624.84;4879904;29;20048;-72
2023/04/24 10:49:29;;;;;;;4.25;1.40;;;;;;;8.51;78.99;100626.63;4879461;29;20096;-72
2023/04/24 10:52:00;;;;;;;4.60;1.73;;;;;;;8.49;79.02;100631.88;4877750;29;20441;-72
2023/04/24 10:54:34;;;;;;;7.68;2.08;;;;;;;8.44;79.57;100637.97;4892515;29;20459;-71
2023/04/24 10:57:24;;;;;;;6.35;1.67;;;;;;;8.44;80.39;100640.56;4900889;29;20095;-74
2023/04/24 11:00:20;;;;;;;3.60;1.40;;;;;;;8.44;78.85;100645.78;4893259;29;20032;-73
2023/04/24 11:02:52;;;;;;;3.40;1.27;;;;;;;8.51;79.35;100644.91;4890385;29;20160;-70
2023/04/24 11:05:19;;;;;;;7.05;1.88;;;;;;;8.51;79.74;100646.66;4890527;29;20044;-73
2023/04/24 11:08:13;;;;;;;6.82;1.70;;;;;;;8.54;80.05;100649.25;4881137;29;20497;-72
2023/04/24 11:10:46;;;;;;;5.32;1.70;;;;;;;8.49;79.73;100649.25;4888712;29;20038;-71
2023/04/24 11:13:16;;;;;;;4.95;1.58;;;;;;;8.43;78.52;100655.38;4877376;29;20176;-70
2023/04/24 11:15:42;;;;;;;5.82;1.50;;;;;;;8.39;79.32;100658.00;4892703;29;20039;-71
2023/04/24 11:18:13;;;;;;;6.80;1.60;;;;;;;8.33;79.04;100667.63;4897887;29;20075;-72
2023/04/24 11:20:43;;;;;;;3.58;1.70;;;;;;;8.24;78.92;100657.19;4899029;29;20098;-72
2023/04/24 11:23:08;;;;;;;5.30;1.60;;;;;;;8.23;78.62;100660.72;4906387;29;20028;-72
2023/04/24 11:25:35;;;;;;;4.97;1.15;;;;;;;8.31;77.89;100655.44;4893773;29;20481;-73
2023/04/24 11:28:05;;;;;;;7.97;1.55;;;;;;;8.43;79.40;100662.31;4907466;29;20056;-72
2023/04/24 11:30:36;;;;;;;5.07;1.58;;;;;;;8.57;78.88;100665.75;4903919;29;20038;-73
2023/04/24 11:33:03;;;;;;;6.30;1.40;;;;;;;8.80;80.81;100670.81;4892991;29;20087;-73
2023/04/24 11:35:30;;;;;;;4.68;1.20;;;;;;;8.87;76.28;100676.03;4932290;29;20478;-71
2023/04/24 11:37:56;;;;;;;5.72;1.25;;;;;;;8.97;77.83;100677.69;4918316;29;20391;-72
2023/04/24 11:40:25;;;;;;;4.38;1.17;;;;;;;9.08;77.52;100672.34;4917166;29;20039;-71
2023/04/24 11:42:52;;;;;;;5.50;1.00;;;;;;;9.17;77.57;100687.97;4900772;29;20472;-71
2023/04/24 11:45:25;;;;;;;4.95;1.15;;;;;;;9.29;78.18;100680.00;4918140;29;20118;-70
2023/04/24 11:47:51;;;;;;;3.40;0.82;;;;;;;9.37;78.23;100679.97;4936220;29;20106;-70
2023/04/24 11:50:25;;;;;;;6.38;1.70;;;;;;;9.39;76.57;100688.63;4909192;29;20052;-71
2023/04/24 11:52:55;;;;;;;3.75;1.00;;;;;;;9.33;74.85;100699.16;4913124;29;20043;-72